Pagrindinis puslapis
METAR-TAF:

METAR-TAF

Oro uostai :

17 Rosado

Mossoró, Rio Grande do Norte, Brazilija

platuma: 05-12S, ilguma: 037-22W, Aukštis: 23 m

Dabartinis oras

Ataskaita buvo paskelbta 10 valandos ir 46 minutes, ne 00:00 UTC
Vėjas 12 kt iš Rytų
Temperatūra 29°C
Drėgmė 70%
Slėgis 1012 hPa
Matomumas 10 km arba daugiau
Mažai debesys ne aukštis 3000 ft

METAR: SBMS 090000Z 08012KT 9999 FEW030 29/23 Q1012

Laikas: 07:46 (10:46 UTC)


TAF: trūkstamas

Orai ataskaitas ir orų prognozės (METAR, TAF).

turimą stotys yra geltonos ir raudonos taškus žemėlapyje.

Perkelti pele per norėdami pamatyti stoties vardą.

Tada spustelėkite, norėdami matyti oro stebėjimo ir prognozės.

Norėdami pakeisti žemėlapį: spustelėkite ant žalios mygtukų su juodo kryžiaus žemyn,; žalią mygtuką su brūkšneliu, jei norite nutolinti; arba žalių rodyklių gretimoms žemėlapius.


METAR-TAF: